Time;durP1;ratioP1;P1;durP2;ratioP2;P2;SDS_P1;SDS_P2;PMS_P1;PMS_P2;Temp;Humidity;BMP_temperature;BMP_pressure;BME280_temperature;BME280_humidity;BME280_pressure;Samples;Min_cycle;Max_cycle;Signal;HPM_P1;HPM_P2
2023/03/11 00:01:30;;;;;;;23.80;11.50;;;;;;;3.47;100.00;99881.63;106865;1274;24085;-79
2023/03/11 00:03:59;;;;;;;21.60;11.10;;;;;;;3.44;100.00;99876.85;107109;1274;26029;-79
2023/03/11 00:06:28;;;;;;;24.10;12.10;;;;;;;3.43;100.00;99868.23;107050;1274;25344;-78
2023/03/11 00:09:00;;;;;;;22.50;11.20;;;;;;;3.42;100.00;99857.77;107119;1274;25242;-79
2023/03/11 00:11:29;;;;;;;22.90;12.10;;;;;;;3.40;100.00;99855.21;107091;1275;25272;-78
2023/03/11 00:14:01;;;;;;;22.10;11.20;;;;;;;3.40;100.00;99846.04;107058;1274;23658;-78
2023/03/11 00:16:29;;;;;;;25.30;12.40;;;;;;;3.38;100.00;99842.57;107151;1274;23867;-78
2023/03/11 00:18:59;;;;;;;26.50;12.70;;;;;;;3.38;100.00;99839.36;107110;1274;23858;-78
2023/03/11 00:21:27;;;;;;;23.20;11.40;;;;;;;3.40;100.00;99833.55;107019;1274;25690;-79
2023/03/11 00:23:59;;;;;;;25.80;12.50;;;;;;;3.40;100.00;99826.91;106957;1274;25353;-77
2023/03/11 00:26:29;;;;;;;25.10;12.20;;;;;;;3.41;100.00;99817.02;107093;1274;25921;-78
2023/03/11 00:28:58;;;;;;;26.70;13.60;;;;;;;3.43;100.00;99809.73;107080;1274;25477;-77
2023/03/11 00:31:27;;;;;;;23.80;12.20;;;;;;;3.45;100.00;99801.72;107077;1274;25425;-77
2023/03/11 00:34:16;;;;;;;25.80;13.20;;;;;;;3.49;100.00;99791.08;106948;1274;25432;-77
2023/03/11 00:36:45;;;;;;;22.30;11.30;;;;;;;3.52;100.00;99799.72;107081;1274;25439;-78
2023/03/11 00:39:14;;;;;;;23.10;11.50;;;;;;;3.56;100.00;99798.63;106993;1274;26487;-82
2023/03/11 00:41:44;;;;;;;25.00;11.40;;;;;;;3.59;100.00;99787.54;107063;1274;25422;-79
2023/03/11 00:44:14;;;;;;;27.20;12.90;;;;;;;3.61;100.00;99784.65;107120;1274;25495;-80
2023/03/11 00:46:42;;;;;;;24.30;12.40;;;;;;;3.64;100.00;99784.27;106345;1274;1003778;-77
2023/03/11 00:49:11;;;;;;;27.10;13.40;;;;;;;3.67;100.00;99780.12;106974;1274;23677;-82
2023/03/11 00:51:39;;;;;;;23.70;11.70;;;;;;;3.68;100.00;99769.82;107050;1274;25481;-80
2023/03/11 00:54:08;;;;;;;21.30;10.30;;;;;;;3.71;100.00;99764.23;106330;1274;1003479;-78
2023/03/11 00:56:37;;;;;;;27.80;12.20;;;;;;;3.73;100.00;99762.25;107015;1274;26573;-78
2023/03/11 00:59:11;;;;;;;23.00;11.40;;;;;;;3.75;100.00;99750.01;106920;1275;23895;-76
2023/03/11 01:01:40;;;;;;;23.30;10.70;;;;;;;3.76;100.00;99744.55;106908;1275;25313;-79
2023/03/11 01:04:10;;;;;;;26.00;12.30;;;;;;;3.76;100.00;99736.34;106967;1275;26501;-78
2023/03/11 01:06:40;;;;;;;24.60;11.80;;;;;;;3.76;100.00;99724.77;106949;1275;26516;-79
2023/03/11 01:09:13;;;;;;;24.40;11.80;;;;;;;3.75;100.00;99718.42;106963;1275;26495;-78
2023/03/11 01:11:44;;;;;;;21.40;11.00;;;;;;;3.72;100.00;99714.05;107014;1275;25866;-79
2023/03/11 01:14:14;;;;;;;22.70;11.60;;;;;;;3.70;100.00;99707.11;106915;1275;25979;-78
2023/03/11 01:16:45;;;;;;;24.40;11.70;;;;;;;3.67;100.00;99700.88;107046;1275;25391;-77
2023/03/11 01:19:16;;;;;;;24.00;10.70;;;;;;;3.66;100.00;99696.58;106882;1275;24356;-78
2023/03/11 01:21:45;;;;;;;25.80;12.50;;;;;;;3.66;100.00;99694.06;106883;1275;25591;-79
2023/03/11 01:24:14;;;;;;;26.20;12.20;;;;;;;3.67;100.00;99692.92;106898;1275;25419;-79
2023/03/11 01:26:47;;;;;;;23.50;11.50;;;;;;;3.66;100.00;99687.77;106923;1275;25473;-77
2023/03/11 01:29:17;;;;;;;19.90;10.80;;;;;;;3.66;100.00;99686.05;106965;1275;25252;-77
2023/03/11 01:31:46;;;;;;;23.70;12.10;;;;;;;3.64;100.00;99680.86;106921;1275;22524;-77
2023/03/11 01:34:14;;;;;;;28.10;13.10;;;;;;;3.63;100.00;99677.56;106854;1275;24791;-79
2023/03/11 01:36:47;;;;;;;25.30;11.90;;;;;;;3.60;100.00;99667.45;106857;1275;26550;-77
2023/03/11 01:39:16;;;;;;;24.00;11.60;;;;;;;3.57;100.00;99661.49;106910;1275;26537;-78
2023/03/11 01:41:44;;;;;;;23.00;10.70;;;;;;;3.53;100.00;99658.79;106794;1275;22540;-78
2023/03/11 01:44:13;;;;;;;24.10;11.60;;;;;;;3.50;100.00;99652.72;107014;1275;25270;-76
2023/03/11 01:46:51;;;;;;;24.10;11.50;;;;;;;3.46;100.00;99648.77;106916;1275;22526;-77
2023/03/11 01:49:25;;;;;;;27.20;11.40;;;;;;;3.41;100.00;99635.48;106876;1275;22924;-77
2023/03/11 01:51:59;;;;;;;25.20;11.90;;;;;;;3.37;100.00;99635.86;106648;1275;25352;-78
2023/03/11 01:54:36;;;;;;;23.30;10.80;;;;;;;3.32;100.00;99629.13;106801;1275;26516;-76
2023/03/11 01:57:06;;;;;;;24.90;12.10;;;;;;;3.28;100.00;99626.61;106939;1275;24231;-77
2023/03/11 01:59:40;;;;;;;23.90;11.50;;;;;;;3.23;100.00;99616.58;106589;1275;25426;-77
2023/03/11 02:02:23;;;;;;;22.30;11.60;;;;;;;3.18;100.00;99608.41;106135;1275;1003467;-76
2023/03/11 02:04:52;;;;;;;23.80;10.50;;;;;;;3.13;100.00;99597.13;106946;1275;26715;-78
2023/03/11 02:07:23;;;;;;;23.70;12.20;;;;;;;3.08;100.00;99592.17;106650;1275;25660;-79
2023/03/11 02:10:01;;;;;;;22.30;11.50;;;;;;;3.05;100.00;99588.02;106986;1275;25334;-79
2023/03/11 02:12:31;;;;;;;24.60;13.10;;;;;;;3.01;100.00;99584.06;107065;1275;25445;-79
2023/03/11 02:15:00;;;;;;;25.70;11.60;;;;;;;2.98;100.00;99572.80;106788;1275;22933;-77
2023/03/11 02:17:33;;;;;;;23.10;11.20;;;;;;;2.95;100.00;99570.89;106996;1275;25372;-78
2023/03/11 02:20:40;;;;;;;24.60;12.00;;;;;;;2.93;100.00;99574.30;107320;1275;25501;-79
2023/03/11 02:23:17;;;;;;;22.00;10.70;;;;;;;2.90;100.00;99560.15;109169;1252;22550;-78
2023/03/11 02:25:55;;;;;;;24.20;12.90;;;;;;;2.88;100.00;99564.58;109370;1275;22562;-80
2023/03/11 02:28:28;;;;;;;22.60;10.80;;;;;;;2.86;100.00;99558.88;106865;1275;23945;-77
2023/03/11 02:30:58;;;;;;;22.90;11.40;;;;;;;2.84;100.00;99557.92;106824;1275;25414;-77
2023/03/11 02:33:28;;;;;;;26.30;13.00;;;;;;;2.83;100.00;99552.72;106145;1275;1016347;-78
2023/03/11 02:35:57;;;;;;;47.40;20.30;;;;;;;2.80;100.00;99548.86;106905;1275;22580;-77
2023/03/11 02:38:27;;;;;;;31.80;16.10;;;;;;;2.78;100.00;99542.44;106918;1275;26515;-76
2023/03/11 02:40:59;;;;;;;28.40;14.40;;;;;;;2.76;100.00;99543.36;106998;1275;22532;-77
2023/03/11 02:43:36;;;;;;;27.40;13.60;;;;;;;2.74;100.00;99531.66;106875;1275;25577;-78
2023/03/11 02:46:05;;;;;;;27.30;13.90;;;;;;;2.71;100.00;99526.88;106814;1275;22641;-79
2023/03/11 02:48:34;;;;;;;29.70;14.70;;;;;;;2.69;100.00;99528.98;107033;1275;24368;-77
2023/03/11 02:51:03;;;;;;;33.00;15.80;;;;;;;2.68;100.00;99528.05;106925;1275;25409;-78
2023/03/11 02:53:38;;;;;;;31.70;15.70;;;;;;;2.65;100.00;99526.08;107031;1275;25974;-78
2023/03/11 02:56:07;;;;;;;29.50;15.00;;;;;;;2.65;100.00;99516.13;107001;1274;22516;-80
2023/03/11 02:58:35;;;;;;;26.60;13.50;;;;;;;2.65;100.00;99512.98;106989;1274;22544;-79
2023/03/11 03:01:04;;;;;;;24.40;13.20;;;;;;;2.65;100.00;99505.65;107135;1274;22637;-79
2023/03/11 03:03:33;;;;;;;24.90;13.20;;;;;;;2.66;100.00;99508.58;107089;1274;25484;-81
2023/03/11 03:06:02;;;;;;;24.40;12.10;;;;;;;2.67;100.00;99506.75;107059;1274;25898;-79
2023/03/11 03:08:31;;;;;;;23.00;11.80;;;;;;;2.68;100.00;99503.64;107108;1274;22514;-78
2023/03/11 03:11:02;;;;;;;25.30;12.90;;;;;;;2.69;100.00;99502.09;106211;1254;1002969;-80
2023/03/11 03:13:31;;;;;;;20.20;10.80;;;;;;;2.71;100.00;99499.65;107020;1274;26627;-78
2023/03/11 03:16:02;;;;;;;24.00;11.80;;;;;;;2.73;100.00;99490.40;107019;1274;25330;-79
2023/03/11 03:18:32;;;;;;;22.70;11.20;;;;;;;2.75;100.00;99480.77;107201;1274;23734;-77
2023/03/11 03:21:06;;;;;;;25.40;12.10;;;;;;;2.76;100.00;99473.92;107047;1274;25426;-78
2023/03/11 03:23:36;;;;;;;24.20;11.60;;;;;;;2.76;100.00;99475.54;107017;1270;24315;-75
2023/03/11 03:26:05;;;;;;;22.40;12.20;;;;;;;2.76;100.00;99467.73;107145;1274;22628;-78
2023/03/11 03:28:37;;;;;;;23.00;10.70;;;;;;;2.75;100.00;99459.24;106922;1274;25894;-79
2023/03/11 03:31:08;;;;;;;25.00;12.80;;;;;;;2.74;100.00;99464.19;107111;1274;25297;-79
2023/03/11 03:33:37;;;;;;;21.70;11.50;;;;;;;2.71;100.00;99469.20;107123;1274;22521;-81
2023/03/11 03:36:08;;;;;;;23.90;11.40;;;;;;;2.70;100.00;99464.73;107044;1274;24182;-77
2023/03/11 03:38:41;;;;;;;20.90;10.60;;;;;;;2.69;100.00;99460.67;106388;1274;1003456;-78
2023/03/11 03:41:13;;;;;;;25.00;11.50;;;;;;;2.69;100.00;99460.16;106915;1274;25516;-77
2023/03/11 03:43:42;;;;;;;22.90;11.40;;;;;;;2.68;100.00;99469.10;106982;1275;25281;-78
2023/03/11 03:46:10;;;;;;;22.30;11.20;;;;;;;2.66;100.00;99461.05;106950;1275;22646;-76
2023/03/11 03:48:42;;;;;;;21.10;10.70;;;;;;;2.63;100.00;99455.65;106922;1275;25490;-75
2023/03/11 03:51:12;;;;;;;21.70;11.80;;;;;;;2.60;100.00;99448.31;106891;1275;22513;-78
2023/03/11 03:53:55;;;;;;;24.90;13.20;;;;;;;2.57;100.00;99447.09;106945;1275;25880;-76
2023/03/11 03:56:25;;;;;;;27.50;14.30;;;;;;;2.55;100.00;99442.70;106894;1275;26723;-78
2023/03/11 03:58:54;;;;;;;27.80;14.90;;;;;;;2.52;100.00;99445.38;106946;1275;25435;-77
2023/03/11 04:01:24;;;;;;;29.40;16.00;;;;;;;2.51;100.00;99432.38;106852;1275;22527;-77
2023/03/11 04:03:53;;;;;;;24.50;13.40;;;;;;;2.50;100.00;99424.39;106926;1275;22673;-78
2023/03/11 04:06:24;;;;;;;22.40;13.00;;;;;;;2.50;100.00;99423.04;107002;1275;25425;-77
2023/03/11 04:09:06;;;;;;;25.30;14.00;;;;;;;2.49;100.00;99417.27;107145;1275;25433;-78
2023/03/11 04:11:37;;;;;;;23.80;12.70;;;;;;;2.47;100.00;99407.41;107000;1275;24220;-78
2023/03/11 04:14:07;;;;;;;22.90;11.80;;;;;;;2.48;100.00;99406.62;106684;1275;26485;-78
2023/03/11 04:16:45;;;;;;;19.90;10.70;;;;;;;2.48;100.00;99403.62;106769;1275;25427;-81
2023/03/11 04:19:14;;;;;;;25.90;12.00;;;;;;;2.49;100.00;99408.67;107003;1275;26492;-78
2023/03/11 04:21:43;;;;;;;24.30;11.20;;;;;;;2.52;100.00;99400.96;106904;1274;26005;-79
2023/03/11 04:24:15;;;;;;;26.00;12.70;;;;;;;2.54;100.00;99404.16;106857;1275;23876;-79
2023/03/11 04:26:44;;;;;;;25.50;11.50;;;;;;;2.55;100.00;99406.59;106193;1275;1003014;-79
2023/03/11 04:29:15;;;;;;;24.80;12.30;;;;;;;2.55;100.00;99395.91;106896;1275;23862;-77
2023/03/11 04:31:48;;;;;;;22.40;11.40;;;;;;;2.57;100.00;99396.40;106924;1275;22520;-80
2023/03/11 04:34:20;;;;;;;26.00;13.00;;;;;;;2.58;100.00;99388.48;106955;1275;25423;-79
2023/03/11 04:36:52;;;;;;;26.40;12.10;;;;;;;2.58;100.00;99388.84;106829;1275;26503;-77
2023/03/11 04:39:23;;;;;;;27.00;11.70;;;;;;;2.57;100.00;99390.88;106982;1275;25882;-78
2023/03/11 04:41:54;;;;;;;25.30;12.20;;;;;;;2.57;100.00;99390.70;106891;1275;25870;-78
2023/03/11 04:44:23;;;;;;;25.20;12.60;;;;;;;2.56;100.00;99392.78;107084;1275;25416;-77
2023/03/11 04:46:53;;;;;;;25.70;12.40;;;;;;;2.54;100.00;99387.95;107003;1275;23884;-78
2023/03/11 04:49:22;;;;;;;24.60;12.00;;;;;;;2.53;100.00;99382.73;107090;1275;25430;-77
2023/03/11 04:51:51;;;;;;;23.30;10.80;;;;;;;2.54;100.00;99374.08;108214;1275;25384;-77
2023/03/11 04:54:21;;;;;;;21.80;10.30;;;;;;;2.55;100.00;99372.52;109067;1275;22530;-78
2023/03/11 04:56:49;;;;;;;22.70;10.80;;;;;;;2.56;100.00;99370.30;109118;1275;24046;-77
2023/03/11 04:59:25;;;;;;;21.60;11.10;;;;;;;2.59;100.00;99363.45;106947;1275;26513;-80
2023/03/11 05:01:54;;;;;;;22.30;10.60;;;;;;;2.64;100.00;99367.45;107013;1275;25419;-80
2023/03/11 05:04:23;;;;;;;22.20;10.20;;;;;;;2.66;100.00;99363.36;107054;1275;25416;-80
2023/03/11 05:06:52;;;;;;;20.70;10.70;;;;;;;2.69;100.00;99361.20;107108;1275;25246;-76
2023/03/11 05:09:21;;;;;;;20.30;9.60;;;;;;;2.69;100.00;99359.77;106939;1275;25923;-79
2023/03/11 05:11:50;;;;;;;22.00;10.70;;;;;;;2.69;100.00;99357.27;106872;1275;22520;-78
2023/03/11 05:14:21;;;;;;;19.30;9.80;;;;;;;2.71;100.00;99350.33;106258;1275;1003461;-77
2023/03/11 05:16:51;;;;;;;18.50;9.20;;;;;;;2.74;100.00;99349.15;107017;1275;25427;-78
2023/03/11 05:19:33;;;;;;;16.60;8.80;;;;;;;2.77;100.00;99345.67;106948;1275;24051;-80
2023/03/11 05:22:10;;;;;;;19.90;8.90;;;;;;;2.82;100.00;99346.50;107121;1275;22457;-77
2023/03/11 05:24:40;;;;;;;19.60;9.40;;;;;;;2.88;100.00;99353.05;107248;1275;24322;-79
2023/03/11 05:27:10;;;;;;;20.10;9.10;;;;;;;2.92;100.00;99362.82;107183;1275;23759;-77
2023/03/11 05:29:39;;;;;;;19.10;9.50;;;;;;;2.95;100.00;99369.32;108164;1275;22497;-80
2023/03/11 05:32:10;;;;;;;17.90;9.80;;;;;;;2.99;100.00;99365.45;106314;1275;1003497;-79
2023/03/11 05:34:40;;;;;;;20.50;12.10;;;;;;;3.04;100.00;99367.63;107317;1275;26813;-78
2023/03/11 05:37:09;;;;;;;27.90;14.90;;;;;;;3.10;100.00;99363.52;107002;1275;22466;-78
2023/03/11 05:39:42;;;;;;;23.80;15.00;;;;;;;3.17;100.00;99364.72;107015;1275;22954;-79
2023/03/11 05:42:11;;;;;;;22.20;12.40;;;;;;;3.25;100.00;99364.88;107156;1275;25421;-79
2023/03/11 05:44:40;;;;;;;19.60;10.50;;;;;;;3.33;100.00;99367.13;107052;1275;22466;-78
2023/03/11 05:47:09;;;;;;;18.90;9.40;;;;;;;3.41;100.00;99361.42;107001;1275;25304;-77
2023/03/11 05:49:38;;;;;;;18.00;10.00;;;;;;;3.48;100.00;99356.83;106982;1275;25282;-79
2023/03/11 05:52:07;;;;;;;23.80;10.50;;;;;;;3.57;100.00;99355.86;107033;1253;22565;-78
2023/03/11 05:54:36;;;;;;;17.60;8.60;;;;;;;3.67;100.00;99360.83;107048;1275;25428;-81
2023/03/11 05:57:07;;;;;;;21.30;10.80;;;;;;;3.75;100.00;99362.54;107183;1275;25444;-80
2023/03/11 05:59:36;;;;;;;21.50;10.30;;;;;;;3.84;100.00;99356.93;107087;1275;25444;-81
2023/03/11 06:02:06;;;;;;;19.00;9.40;;;;;;;3.91;100.00;99354.41;108552;1275;23753;-79
2023/03/11 06:04:36;;;;;;;19.00;9.90;;;;;;;4.00;100.00;99350.77;107345;1265;22482;-78
2023/03/11 06:07:07;;;;;;;18.40;9.60;;;;;;;4.07;100.00;99348.67;106966;1275;417688;-79
2023/03/11 06:09:38;;;;;;;23.60;10.40;;;;;;;4.13;100.00;99350.61;107217;1275;25436;-79
2023/03/11 06:12:13;;;;;;;20.60;10.00;;;;;;;4.19;100.00;99346.99;106968;1275;26498;-78
2023/03/11 06:15:06;;;;;;;20.80;10.40;;;;;;;4.24;100.00;99341.86;107168;1275;25447;-81
2023/03/11 06:17:36;;;;;;;19.80;10.40;;;;;;;4.28;100.00;99341.16;107849;1275;24255;-78
2023/03/11 06:20:06;;;;;;;20.50;9.80;;;;;;;4.34;100.00;99347.19;107221;1275;26040;-81
2023/03/11 06:22:37;;;;;;;20.60;10.70;;;;;;;4.40;100.00;99342.45;107082;1275;23821;-78
2023/03/11 06:25:08;;;;;;;23.50;11.10;;;;;;;4.46;100.00;99335.10;107515;1275;22509;-79
2023/03/11 06:27:39;;;;;;;19.90;10.30;;;;;;;4.53;100.00;99331.89;107645;1275;25435;-79
2023/03/11 06:30:09;;;;;;;20.90;10.50;;;;;;;4.61;100.00;99329.41;107528;1275;25424;-79
2023/03/11 06:32:49;;;;;;;19.00;10.20;;;;;;;4.70;100.00;99328.33;107339;1275;23891;-80
2023/03/11 06:35:19;;;;;;;18.40;9.00;;;;;;;4.78;100.00;99329.55;106944;1275;22518;-80
2023/03/11 06:37:48;;;;;;;22.10;10.20;;;;;;;4.86;100.00;99328.20;107254;1268;25358;-71
2023/03/11 06:40:17;;;;;;;17.70;8.80;;;;;;;4.93;100.00;99319.20;106864;1272;22519;-71
2023/03/11 06:42:49;;;;;;;17.00;8.80;;;;;;;5.01;100.00;99322.19;106866;1275;24295;-70
2023/03/11 06:45:19;;;;;;;21.60;10.30;;;;;;;5.11;100.00;99323.19;107085;1274;25903;-70
2023/03/11 06:47:49;;;;;;;22.10;10.50;;;;;;;5.21;100.00;99319.75;106912;1274;25902;-70
2023/03/11 06:50:18;;;;;;;19.40;10.20;;;;;;;5.28;100.00;99320.75;107071;1271;22525;-74
2023/03/11 06:52:48;;;;;;;24.40;10.90;;;;;;;5.37;100.00;99314.90;107070;1275;25930;-76
2023/03/11 06:55:17;;;;;;;24.10;11.00;;;;;;;5.43;100.00;99317.63;107096;1275;22520;-77
2023/03/11 06:57:46;;;;;;;22.10;10.40;;;;;;;5.51;100.00;99316.31;106826;1275;25923;-75
2023/03/11 07:00:15;;;;;;;20.70;10.40;;;;;;;5.57;100.00;99313.54;107005;1275;23855;-79
2023/03/11 07:02:49;;;;;;;24.10;11.90;;;;;;;5.64;100.00;99306.41;107386;1274;24160;-77
2023/03/11 07:05:17;;;;;;;24.50;11.40;;;;;;;5.71;100.00;99306.02;107253;1275;25430;-77
2023/03/11 07:07:47;;;;;;;23.10;12.60;;;;;;;5.79;100.00;99307.56;107317;1274;24972;-75
2023/03/11 07:10:19;;;;;;;23.90;12.10;;;;;;;5.85;100.00;99301.38;107234;1274;25437;-75
2023/03/11 07:12:49;;;;;;;21.60;11.10;;;;;;;5.91;100.00;99301.77;107557;1274;25433;-76
2023/03/11 07:15:18;;;;;;;21.00;11.50;;;;;;;5.98;100.00;99301.15;107364;1275;25422;-75
2023/03/11 07:17:49;;;;;;;23.30;12.20;;;;;;;6.07;100.00;99293.23;107188;1274;22801;-76
2023/03/11 07:20:18;;;;;;;21.00;11.00;;;;;;;6.18;100.00;99290.70;107062;1270;25527;-74
2023/03/11 07:22:47;;;;;;;18.70;9.30;;;;;;;6.27;100.00;99283.48;107108;1275;24226;-77
2023/03/11 07:25:15;;;;;;;20.20;10.00;;;;;;;6.34;100.00;99282.59;108884;1272;22535;-77
2023/03/11 07:27:45;;;;;;;20.70;10.70;;;;;;;6.43;100.00;99275.91;109740;1275;26039;-71
2023/03/11 07:30:14;;;;;;;20.60;11.00;;;;;;;6.55;100.00;99276.34;107380;1271;23040;-69
2023/03/11 07:32:43;;;;;;;25.30;10.90;;;;;;;6.66;100.00;99274.69;107018;1269;25358;-70
2023/03/11 07:35:12;;;;;;;19.60;10.50;;;;;;;6.74;100.00;99272.39;106958;1275;26583;-72
2023/03/11 07:37:44;;;;;;;23.80;10.80;;;;;;;6.79;100.00;99268.02;107186;1253;23336;-70
2023/03/11 07:40:12;;;;;;;20.50;10.60;;;;;;;6.88;100.00;99261.61;107116;1271;22564;-72
2023/03/11 07:42:41;;;;;;;23.40;12.20;;;;;;;6.94;100.00;99256.23;107060;1275;25263;-72
2023/03/11 07:45:11;;;;;;;23.80;12.40;;;;;;;7.01;100.00;99246.92;107159;1275;25390;-72
2023/03/11 07:47:40;;;;;;;26.90;12.30;;;;;;;7.06;100.00;99243.98;107280;1271;25341;-72
2023/03/11 07:50:10;;;;;;;20.40;10.60;;;;;;;7.10;100.00;99238.59;107171;1274;25328;-72
2023/03/11 07:52:43;;;;;;;20.20;11.20;;;;;;;7.13;100.00;99223.02;107120;1274;25365;-70
2023/03/11 07:55:19;;;;;;;20.90;11.40;;;;;;;7.12;100.00;99219.89;107055;1274;25355;-72
2023/03/11 07:57:48;;;;;;;19.80;11.30;;;;;;;7.10;100.00;99217.65;107174;1267;25293;-71
2023/03/11 08:00:17;;;;;;;20.00;11.00;;;;;;;7.03;100.00;99200.29;106472;1268;1003341;-73
2023/03/11 08:02:46;;;;;;;18.50;9.90;;;;;;;6.95;100.00;99182.48;107024;1268;23871;-70
2023/03/11 08:05:17;;;;;;;17.50;9.80;;;;;;;6.92;100.00;99173.70;106746;1271;25341;-71
2023/03/11 08:07:46;;;;;;;18.10;8.90;;;;;;;6.91;100.00;99160.23;107119;1268;25525;-70
2023/03/11 08:10:14;;;;;;;16.40;8.40;;;;;;;6.90;100.00;99143.98;106942;1269;22602;-71
2023/03/11 08:12:45;;;;;;;16.60;8.00;;;;;;;6.89;100.00;99127.16;106921;1269;23632;-70
2023/03/11 08:15:13;;;;;;;16.40;7.40;;;;;;;6.83;100.00;99122.86;106655;1276;26691;-73
2023/03/11 08:17:43;;;;;;;13.60;7.00;;;;;;;6.80;100.00;99108.43;106756;1271;26641;-70
2023/03/11 08:20:12;;;;;;;15.40;7.00;;;;;;;6.75;100.00;99101.41;106870;1275;25801;-78
2023/03/11 08:22:42;;;;;;;13.80;5.50;;;;;;;6.70;100.00;99085.90;107037;1273;26543;-78
2023/03/11 08:25:24;;;;;;;12.90;5.30;;;;;;;6.64;100.00;99079.33;106794;1269;1002436;-76
2023/03/11 08:27:53;;;;;;;12.70;5.70;;;;;;;6.60;100.00;99069.38;106928;1271;22527;-76
2023/03/11 08:30:21;;;;;;;12.50;6.20;;;;;;;6.57;100.00;99063.80;106985;1269;24783;-74
2023/03/11 08:33:03;;;;;;;11.90;6.10;;;;;;;6.55;100.00;99063.29;106944;1271;25358;-76
2023/03/11 08:35:32;;;;;;;11.80;6.40;;;;;;;6.55;100.00;99060.11;107180;1271;25487;-76
2023/03/11 08:38:02;;;;;;;14.00;6.40;;;;;;;6.54;100.00;99054.65;107265;1270;26033;-78
2023/03/11 08:40:31;;;;;;;13.30;7.00;;;;;;;6.53;100.00;99051.86;106847;1271;24272;-71
2023/03/11 08:42:59;;;;;;;16.50;7.60;;;;;;;6.53;100.00;99046.52;106887;1276;26501;-69
2023/03/11 08:45:29;;;;;;;16.40;7.10;;;;;;;6.52;100.00;99039.81;106276;1269;1002841;-71
2023/03/11 08:47:57;;;;;;;8.90;5.40;;;;;;;6.52;100.00;99030.38;107071;1273;24160;-79
2023/03/11 08:50:26;;;;;;;11.70;6.50;;;;;;;6.53;100.00;99027.43;106901;1270;23927;-71
2023/03/11 08:52:59;;;;;;;12.50;6.10;;;;;;;6.55;100.00;99024.98;107106;1275;25524;-70
2023/03/11 08:55:28;;;;;;;11.20;6.30;;;;;;;6.58;100.00;99023.09;106863;1269;23409;-71
2023/03/11 08:57:57;;;;;;;18.00;8.10;;;;;;;6.60;100.00;99025.29;107456;1271;26522;-80
2023/03/11 09:00:25;;;;;;;17.00;8.10;;;;;;;6.62;100.00;99031.38;108024;1269;25353;-77
2023/03/11 09:02:55;;;;;;;15.30;7.90;;;;;;;6.62;100.00;99023.30;107020;1270;22869;-79
2023/03/11 09:05:23;;;;;;;13.40;7.50;;;;;;;6.64;100.00;99020.02;107139;1276;24824;-76
2023/03/11 09:07:52;;;;;;;13.60;6.40;;;;;;;6.68;100.00;99030.23;106979;1273;26734;-76
2023/03/11 09:10:21;;;;;;;17.70;7.30;;;;;;;6.71;100.00;99033.45;106981;1277;26641;-79
2023/03/11 09:12:50;;;;;;;13.90;6.10;;;;;;;6.74;100.00;99038.67;106773;1277;25306;-80
2023/03/11 09:15:21;;;;;;;14.20;6.70;;;;;;;6.77;100.00;99041.52;106750;1275;24227;-77
2023/03/11 09:17:50;;;;;;;12.60;6.40;;;;;;;6.79;100.00;99034.30;107168;1269;25434;-81
2023/03/11 09:20:20;;;;;;;16.20;5.90;;;;;;;6.81;100.00;99023.85;107468;1262;24318;-79
2023/03/11 09:22:49;;;;;;;13.20;6.70;;;;;;;6.87;100.00;99026.12;107038;1276;25307;-78
2023/03/11 09:25:19;;;;;;;14.10;7.10;;;;;;;6.92;100.00;99024.32;106834;1272;24239;-72
2023/03/11 09:27:48;;;;;;;13.70;6.30;;;;;;;6.97;100.00;99022.46;107009;1269;25379;-71
2023/03/11 09:30:17;;;;;;;10.70;5.80;;;;;;;7.02;100.00;99023.72;107041;1273;25687;-72
2023/03/11 09:32:46;;;;;;;14.00;6.20;;;;;;;7.06;100.00;99026.14;107137;1270;25883;-72
2023/03/11 09:35:15;;;;;;;13.00;6.50;;;;;;;7.09;100.00;99020.91;106862;1276;23842;-73
2023/03/11 09:37:45;;;;;;;13.90;7.10;;;;;;;7.13;100.00;99017.82;106920;1271;25457;-73
2023/03/11 09:40:16;;;;;;;11.00;6.30;;;;;;;7.17;100.00;99020.79;107141;1275;25360;-73
2023/03/11 09:43:12;;;;;;;14.00;7.10;;;;;;;7.21;100.00;99023.08;107066;1276;24251;-72
2023/03/11 09:45:57;;;;;;;18.00;7.90;;;;;;;7.29;100.00;99017.04;106970;1270;22527;-72
2023/03/11 09:48:28;;;;;;;18.00;7.90;;;;;;;7.34;100.00;99020.98;104068;1271;1016243;-71
2023/03/11 09:50:59;;;;;;;19.00;7.70;;;;;;;7.37;100.00;99026.34;106132;1271;1002986;-74
2023/03/11 09:53:35;;;;;;;17.90;8.30;;;;;;;7.39;100.00;99022.30;106892;1273;25430;-72
2023/03/11 09:56:06;;;;;;;16.20;8.00;;;;;;;7.42;100.00;99016.30;106767;1272;24265;-72
2023/03/11 09:58:38;;;;;;;20.00;9.10;;;;;;;7.46;100.00;99018.94;106821;1277;22604;-69
2023/03/11 10:01:22;;;;;;;17.90;9.00;;;;;;;7.48;100.00;99012.00;106817;1276;25289;-72
2023/03/11 10:03:53;;;;;;;20.50;9.10;;;;;;;7.51;100.00;99007.33;106960;1269;26708;-70
2023/03/11 10:06:23;;;;;;;16.60;8.10;;;;;;;7.54;100.00;99005.20;106872;1277;25304;-71
2023/03/11 10:09:01;;;;;;;17.60;8.50;;;;;;;7.56;100.00;99010.01;106951;1273;24209;-68
2023/03/11 10:11:48;;;;;;;18.50;8.80;;;;;;;7.59;100.00;99011.27;107552;1272;22486;-79
2023/03/11 10:14:35;;;;;;;17.00;8.20;;;;;;;7.62;100.00;99004.52;109835;1269;23537;-73
2023/03/11 10:18:03;;;;;;;17.50;8.10;;;;;;;7.66;100.00;99005.27;107936;1271;24221;-78
2023/03/11 10:20:51;;;;;;;18.30;8.80;;;;;;;7.71;100.00;98995.63;107192;1276;25448;-77
2023/03/11 10:23:49;;;;;;;19.10;9.30;;;;;;;7.75;100.00;99000.80;106681;1283;26098;-79
2023/03/11 10:26:31;;;;;;;16.30;7.60;;;;;;;7.80;100.00;98996.70;107033;1276;23943;-79
2023/03/11 10:29:09;;;;;;;22.70;9.60;;;;;;;7.83;100.00;98993.25;107097;1273;25438;-73
2023/03/11 10:31:42;;;;;;;15.90;7.90;;;;;;;7.86;100.00;98995.65;107496;1272;25555;-75
2023/03/11 10:34:25;;;;;;;18.50;9.00;;;;;;;7.88;100.00;98994.66;107180;1269;24218;-79
2023/03/11 10:37:00;;;;;;;20.40;9.70;;;;;;;7.92;100.00;98986.65;106963;1265;25509;-77
2023/03/11 10:39:30;;;;;;;26.70;11.20;;;;;;;7.95;100.00;98984.64;107120;1276;22640;-69
2023/03/11 10:42:00;;;;;;;20.00;9.60;;;;;;;7.99;100.00;98976.52;107173;1276;27065;-75
2023/03/11 10:44:33;;;;;;;21.70;10.60;;;;;;;8.02;100.00;98969.92;107254;1276;24221;-70
2023/03/11 10:47:03;;;;;;;20.00;9.30;;;;;;;8.04;100.00;98965.90;106940;1276;26535;-72
2023/03/11 10:49:32;;;;;;;17.60;8.90;;;;;;;8.08;100.00;98965.41;107143;1272;25435;-75
2023/03/11 10:52:00;;;;;;;18.70;9.00;;;;;;;8.12;100.00;98960.96;107325;1269;24255;-74
2023/03/11 10:54:44;;;;;;;14.80;8.10;;;;;;;8.17;100.00;98960.79;107179;1275;22633;-74
2023/03/11 10:57:27;;;;;;;17.10;8.50;;;;;;;8.23;100.00;98952.35;107031;1273;25362;-74
2023/03/11 11:00:11;;;;;;;18.20;9.30;;;;;;;8.29;100.00;98956.27;106962;1274;25429;-73
2023/03/11 11:03:17;;;;;;;18.30;9.00;;;;;;;8.34;100.00;98957.45;107230;1269;25355;-74
2023/03/11 11:06:00;;;;;;;18.60;8.70;;;;;;;8.41;100.00;98953.30;106821;1276;26575;-71
2023/03/11 11:08:29;;;;;;;15.60;8.30;;;;;;;8.45;100.00;98954.80;107203;1276;23893;-70
2023/03/11 11:10:59;;;;;;;15.70;8.40;;;;;;;8.49;100.00;98954.98;107232;1275;25454;-71
2023/03/11 11:13:31;;;;;;;15.80;7.50;;;;;;;8.53;100.00;98955.41;107558;1276;25435;-74
2023/03/11 11:16:03;;;;;;;10.60;6.30;;;;;;;8.58;100.00;98950.23;107057;1272;22535;-74
2023/03/11 11:18:43;;;;;;;14.10;6.70;;;;;;;8.61;100.00;98945.52;106947;1276;25434;-75
2023/03/11 11:21:25;;;;;;;10.10;6.50;;;;;;;8.62;100.00;98943.94;107012;1276;25442;-74
2023/03/11 11:24:17;;;;;;;13.00;6.90;;;;;;;8.63;100.00;98951.73;106962;1276;22537;-74
2023/03/11 11:27:10;;;;;;;12.50;7.00;;;;;;;8.68;100.00;98952.73;106922;1277;26055;-73
2023/03/11 11:29:39;;;;;;;10.30;6.00;;;;;;;8.70;100.00;98945.52;107011;1276;25430;-72
2023/03/11 11:32:17;;;;;;;10.00;5.80;;;;;;;8.71;100.00;98958.08;107017;1276;25422;-73
2023/03/11 11:34:58;;;;;;;11.20;6.40;;;;;;;8.72;100.00;98955.10;107067;1276;25080;-74